Time;durP1;ratioP1;P1;durP2;ratioP2;P2;SDS_P1;SDS_P2;PMS_P1;PMS_P2;Temp;Humidity;BMP_temperature;BMP_pressure;BME280_temperature;BME280_humidity;BME280_pressure;Samples;Min_cycle;Max_cycle;Signal;HPM_P1;HPM_P2
2023/09/20 00:02:20;;;;;;;6.05;4.55;;;;;;;19.29;45.97;100224.88;1594860;90;21123;-74
2023/09/20 00:04:50;;;;;;;7.22;5.20;;;;;;;19.26;46.10;100225.95;1593718;89;21087;-74
2023/09/20 00:07:19;;;;;;;5.87;4.53;;;;;;;19.23;46.17;100225.08;1585462;89;21092;-74
2023/09/20 00:09:48;;;;;;;6.35;4.78;;;;;;;19.20;46.27;100231.99;1585498;90;21068;-73
2023/09/20 00:12:17;;;;;;;6.30;4.60;;;;;;;19.18;46.30;100234.19;1667045;85;21080;-74
2023/09/20 00:14:47;;;;;;;7.30;4.58;;;;;;;19.15;46.37;100224.98;1685148;85;21028;-74
2023/09/20 00:17:16;;;;;;;5.90;4.53;;;;;;;19.14;46.44;100230.80;1685063;85;21444;-73
2023/09/20 00:19:45;;;;;;;7.47;4.50;;;;;;;19.13;46.51;100234.13;1685144;85;21016;-73
2023/09/20 00:22:14;;;;;;;8.73;5.30;;;;;;;19.12;46.59;100239.38;1685190;85;21033;-75
2023/09/20 00:24:43;;;;;;;8.75;4.50;;;;;;;19.10;46.68;100239.35;1685199;85;21044;-75
2023/09/20 00:27:11;;;;;;;8.43;4.95;;;;;;;19.08;46.74;100247.10;1685018;85;21456;-74
2023/09/20 00:29:40;;;;;;;7.20;4.80;;;;;;;19.06;46.85;100249.30;1684953;85;21514;-72
2023/09/20 00:32:10;;;;;;;5.72;4.60;;;;;;;19.03;46.89;100243.71;1685204;85;21083;-72
2023/09/20 00:34:39;;;;;;;6.70;4.95;;;;;;;18.99;46.99;100245.32;1685020;85;21459;-74
2023/09/20 00:37:07;;;;;;;8.23;5.15;;;;;;;18.94;47.16;100241.92;1685172;85;20977;-74
2023/09/20 00:39:36;;;;;;;8.35;4.90;;;;;;;18.90;47.33;100249.09;1684986;85;21048;-73
2023/09/20 00:42:05;;;;;;;6.62;4.90;;;;;;;18.87;47.42;100248.22;1685025;85;21291;-74
2023/09/20 00:44:35;;;;;;;6.55;4.62;;;;;;;18.85;47.55;100250.92;1685054;85;21040;-74
2023/09/20 00:47:04;;;;;;;7.53;4.78;;;;;;;18.87;47.64;100248.77;1685302;85;21068;-75
2023/09/20 00:49:34;;;;;;;10.10;4.85;;;;;;;18.82;47.66;100251.43;1685003;85;21000;-74
2023/09/20 00:52:03;;;;;;;6.70;4.53;;;;;;;18.79;47.79;100254.72;1684993;85;21476;-73
2023/09/20 00:54:33;;;;;;;6.80;4.47;;;;;;;18.77;47.93;100256.36;1685159;85;21067;-74
2023/09/20 00:57:05;;;;;;;6.42;4.58;;;;;;;18.78;47.98;100257.20;1685058;85;20981;-73
2023/09/20 00:59:34;;;;;;;6.47;4.53;;;;;;;18.76;48.10;100258.01;1684715;85;21093;-74
2023/09/20 01:02:03;;;;;;;7.20;4.75;;;;;;;18.75;48.18;100253.55;1685047;85;20972;-73
2023/09/20 01:04:34;;;;;;;6.30;4.75;;;;;;;18.74;48.31;100262.42;1684731;85;21092;-73
2023/09/20 01:07:04;;;;;;;7.35;4.40;;;;;;;18.71;48.43;100258.77;1685276;85;21436;-73
2023/09/20 01:09:33;;;;;;;6.47;4.55;;;;;;;18.69;48.54;100258.19;1685573;84;21024;-73
2023/09/20 01:12:02;;;;;;;9.65;4.53;;;;;;;18.67;48.65;100254.83;1685489;85;21000;-73
2023/09/20 01:14:31;;;;;;;7.70;4.72;;;;;;;18.65;48.79;100259.24;1685403;84;21056;-73
2023/09/20 01:17:08;;;;;;;7.67;4.92;;;;;;;18.65;48.93;100262.56;1689159;84;21021;-73
2023/09/20 01:19:38;;;;;;;8.17;4.77;;;;;;;18.64;49.04;100263.66;1685852;84;21052;-75
2023/09/20 01:22:06;;;;;;;6.80;4.45;;;;;;;18.63;49.17;100270.30;1685610;85;21032;-72
2023/09/20 01:24:36;;;;;;;6.40;4.53;;;;;;;18.60;49.29;100268.84;1685439;84;21488;-72
2023/09/20 01:27:05;;;;;;;8.28;4.70;;;;;;;18.58;49.44;100271.58;1685354;85;21440;-72
2023/09/20 01:29:35;;;;;;;6.20;4.30;;;;;;;18.59;49.54;100273.27;1685290;85;21020;-73
2023/09/20 01:32:05;;;;;;;7.15;4.90;;;;;;;18.56;49.68;100277.93;1685567;85;21123;-74
2023/09/20 01:34:34;;;;;;;6.05;4.37;;;;;;;18.56;49.79;100280.16;1685523;85;21033;-73
2023/09/20 01:37:04;;;;;;;6.25;4.72;;;;;;;18.58;49.86;100282.69;1685394;85;21444;-73
2023/09/20 01:39:33;;;;;;;6.90;4.50;;;;;;;18.57;49.99;100290.16;1685382;85;21025;-73
2023/09/20 01:42:02;;;;;;;9.03;4.80;;;;;;;18.55;50.07;100288.19;1685601;85;21016;-72
2023/09/20 01:44:37;;;;;;;8.40;4.90;;;;;;;18.53;50.15;100283.44;1685579;85;21012;-73
2023/09/20 01:47:04;;;;;;;7.60;4.53;;;;;;;18.53;50.29;100289.53;1685510;84;21056;-73
2023/09/20 01:49:34;;;;;;;5.75;4.20;;;;;;;18.50;50.38;100286.72;1685395;85;21028;-72
2023/09/20 01:52:06;;;;;;;9.25;4.20;;;;;;;18.48;50.49;100279.20;1685354;85;21028;-72
2023/09/20 01:54:34;;;;;;;8.60;4.45;;;;;;;18.49;50.62;100279.48;1685362;84;21040;-73
2023/09/20 01:57:05;;;;;;;6.12;4.72;;;;;;;18.46;50.69;100284.16;1685268;85;21040;-72
2023/09/20 01:59:34;;;;;;;9.45;4.45;;;;;;;18.45;50.82;100278.86;1685563;85;20993;-71
2023/09/20 02:02:04;;;;;;;6.22;4.60;;;;;;;18.43;50.90;100285.21;1685472;85;21480;-72
2023/09/20 02:04:32;;;;;;;5.97;4.20;;;;;;;18.43;50.97;100276.34;1685455;85;20997;-73
2023/09/20 02:07:01;;;;;;;6.05;4.22;;;;;;;18.42;51.04;100277.44;1670920;85;21697;-73
2023/09/20 02:09:31;;;;;;;8.35;4.60;;;;;;;18.41;51.12;100281.84;1666540;85;21109;-72
2023/09/20 02:12:00;;;;;;;4.90;4.12;;;;;;;18.40;51.18;100281.00;1666510;86;21142;-73
2023/09/20 02:14:31;;;;;;;7.85;4.37;;;;;;;18.41;51.21;100280.45;1666624;86;21116;-74
2023/09/20 02:17:00;;;;;;;6.25;4.47;;;;;;;18.39;51.30;100283.48;1666512;86;21528;-73
2023/09/20 02:19:30;;;;;;;6.60;4.20;;;;;;;18.39;51.38;100283.48;1666566;86;21034;-72
2023/09/20 02:21:59;;;;;;;6.30;4.30;;;;;;;18.38;51.41;100279.03;1666590;85;21475;-71
2023/09/20 02:24:28;;;;;;;8.40;4.62;;;;;;;18.37;51.50;100277.34;1666903;86;21078;-73
2023/09/20 02:26:57;;;;;;;8.48;4.70;;;;;;;18.34;51.58;100274.53;1666501;86;21097;-73
2023/09/20 02:29:26;;;;;;;6.30;4.10;;;;;;;18.34;51.66;100276.47;1666522;85;21102;-73
2023/09/20 02:31:55;;;;;;;5.97;4.30;;;;;;;18.34;51.76;100275.08;1666611;86;21051;-72
2023/09/20 02:34:23;;;;;;;5.35;4.30;;;;;;;18.31;51.86;100283.36;1666688;86;21058;-73
2023/09/20 02:36:56;;;;;;;6.85;4.25;;;;;;;18.28;51.92;100278.86;1666611;86;21094;-74
2023/09/20 02:39:24;;;;;;;6.65;4.30;;;;;;;18.26;52.00;100286.05;1666643;86;21054;-73
2023/09/20 02:41:55;;;;;;;9.33;4.30;;;;;;;18.27;52.10;100281.34;1666775;86;21098;-73
2023/09/20 02:44:27;;;;;;;8.53;4.08;;;;;;;18.27;52.11;100279.41;1666832;86;21098;-73
2023/09/20 02:46:58;;;;;;;7.15;4.50;;;;;;;18.27;52.14;100275.79;1666679;86;21114;-73
2023/09/20 02:49:28;;;;;;;5.78;4.20;;;;;;;18.26;52.19;100277.72;1666482;86;21085;-73
2023/09/20 02:51:57;;;;;;;8.00;4.10;;;;;;;18.26;52.28;100280.50;1666558;86;21113;-73
2023/09/20 02:54:25;;;;;;;9.50;4.40;;;;;;;18.26;52.66;100276.88;1666572;86;21050;-74
2023/09/20 02:56:55;;;;;;;6.55;4.42;;;;;;;18.27;53.46;100281.34;1666505;86;21506;-74
2023/09/20 02:59:25;;;;;;;5.50;4.30;;;;;;;18.24;54.24;100280.45;1666595;86;21486;-74
2023/09/20 03:01:55;;;;;;;5.78;4.22;;;;;;;18.20;54.81;100285.63;1666612;86;21594;-74
2023/09/20 03:04:24;;;;;;;6.20;4.28;;;;;;;18.16;55.24;100284.45;1666470;86;21107;-76
2023/09/20 03:06:55;;;;;;;5.62;4.20;;;;;;;18.11;55.98;100277.42;1676233;84;21000;-77
2023/09/20 03:09:24;;;;;;;6.80;4.28;;;;;;;18.03;56.73;100282.84;1683141;84;21036;-76
2023/09/20 03:11:54;;;;;;;6.75;4.10;;;;;;;17.98;57.57;100276.36;1683554;85;21040;-76
2023/09/20 03:14:24;;;;;;;7.70;4.60;;;;;;;17.93;58.27;100279.88;1683605;84;21027;-77
2023/09/20 03:16:53;;;;;;;5.30;4.37;;;;;;;17.87;58.57;100279.48;1684523;85;21087;-74
2023/09/20 03:19:22;;;;;;;6.72;4.90;;;;;;;17.84;59.39;100279.14;1684124;85;21020;-74
2023/09/20 03:21:51;;;;;;;6.20;4.62;;;;;;;17.80;60.07;100277.41;1683835;85;21048;-74
2023/09/20 03:24:20;;;;;;;5.72;4.10;;;;;;;17.77;60.48;100278.45;1683048;85;21060;-75
2023/09/20 03:26:52;;;;;;;6.35;4.50;;;;;;;17.71;60.64;100276.97;1683186;84;21016;-75
2023/09/20 03:29:23;;;;;;;5.28;4.50;;;;;;;17.66;60.74;100275.48;1683090;85;21009;-75
2023/09/20 03:31:52;;;;;;;7.42;4.60;;;;;;;17.61;60.95;100267.05;1683327;85;21032;-75
2023/09/20 03:34:22;;;;;;;9.28;4.75;;;;;;;17.59;61.16;100270.61;1683122;85;21037;-75
2023/09/20 03:36:50;;;;;;;8.30;4.72;;;;;;;17.55;61.49;100269.92;1683061;85;21080;-78
2023/09/20 03:39:24;;;;;;;9.85;5.00;;;;;;;17.52;62.25;100269.88;1683239;85;21041;-77
2023/09/20 03:41:51;;;;;;;8.68;5.22;;;;;;;17.50;62.61;100269.83;1683346;84;21183;-80
2023/09/20 03:44:20;;;;;;;8.53;4.67;;;;;;;17.49;63.62;100268.98;1683309;85;21040;-77
2023/09/20 03:46:50;;;;;;;9.40;5.47;;;;;;;17.44;64.58;100278.03;1683133;85;21028;-76
2023/09/20 03:49:21;;;;;;;7.37;5.08;;;;;;;17.39;65.67;100269.62;1683282;85;21100;-76
2023/09/20 03:51:50;;;;;;;17.00;6.17;;;;;;;17.35;66.90;100268.97;1683074;85;21064;-75
2023/09/20 03:54:19;;;;;;;8.20;6.28;;;;;;;17.25;68.56;100267.37;1683222;85;21025;-77
2023/09/20 03:56:48;;;;;;;11.93;6.17;;;;;;;17.16;70.25;100267.46;1683300;84;20977;-76
2023/09/20 03:59:17;;;;;;;10.13;6.00;;;;;;;17.04;71.48;100275.79;1683300;84;21024;-75
2023/09/20 04:01:47;;;;;;;12.53;6.37;;;;;;;16.94;72.93;100275.56;1686510;85;21737;-78
2023/09/20 04:04:16;;;;;;;10.58;7.00;;;;;;;16.85;74.16;100275.59;1683051;85;21044;-77
2023/09/20 04:06:45;;;;;;;9.35;6.70;;;;;;;16.80;75.45;100276.33;1683957;84;21080;-77
2023/09/20 04:09:14;;;;;;;8.48;6.33;;;;;;;16.76;76.52;100267.66;1685322;84;21024;-77
2023/09/20 04:11:43;;;;;;;9.80;6.92;;;;;;;16.72;77.27;100273.38;1685428;85;21007;-77
2023/09/20 04:14:12;;;;;;;10.75;7.40;;;;;;;16.65;78.00;100267.64;1685419;85;20993;-76
2023/09/20 04:16:41;;;;;;;9.35;7.05;;;;;;;16.60;78.82;100268.36;1685458;84;21020;-76
2023/09/20 04:19:10;;;;;;;8.63;6.87;;;;;;;16.56;79.60;100263.01;1685607;85;21350;-80
2023/09/20 04:21:38;;;;;;;9.23;7.30;;;;;;;16.52;80.12;100264.58;1685400;85;21482;-80
2023/09/20 04:24:07;;;;;;;8.23;6.33;;;;;;;16.48;80.52;100261.98;1685344;85;21017;-76
2023/09/20 04:26:36;;;;;;;10.70;7.25;;;;;;;16.46;81.05;100258.08;1685283;85;21456;-75
2023/09/20 04:29:05;;;;;;;10.08;7.30;;;;;;;16.45;81.74;100261.08;1685419;84;21030;-76
2023/09/20 04:31:35;;;;;;;9.45;6.90;;;;;;;16.43;82.08;100264.09;1685438;85;21068;-75
2023/09/20 04:34:05;;;;;;;13.48;7.67;;;;;;;16.39;82.03;100264.27;1688804;85;21478;-75
2023/09/20 04:36:36;;;;;;;10.98;7.47;;;;;;;16.35;82.57;100263.59;1685374;84;21084;-75
2023/09/20 04:39:06;;;;;;;11.73;7.22;;;;;;;16.35;83.12;100271.36;1685312;85;21606;-76
2023/09/20 04:41:37;;;;;;;10.32;7.20;;;;;;;16.34;83.21;100271.05;1685627;85;21016;-75
2023/09/20 04:44:07;;;;;;;14.13;7.10;;;;;;;16.34;83.57;100265.52;1689098;85;20997;-76
2023/09/20 04:46:36;;;;;;;10.15;7.30;;;;;;;16.35;84.07;100257.53;1685352;85;21452;-73
2023/09/20 04:49:06;;;;;;;11.57;7.87;;;;;;;16.38;84.44;100260.36;1685509;85;20980;-73
2023/09/20 04:51:37;;;;;;;11.30;7.00;;;;;;;16.40;85.08;100264.56;1685321;85;21076;-75
2023/09/20 04:54:07;;;;;;;12.33;7.80;;;;;;;16.42;85.31;100266.55;1685417;85;21008;-75
2023/09/20 04:56:37;;;;;;;13.45;7.90;;;;;;;16.45;85.66;100269.38;1685575;84;21080;-75
2023/09/20 04:59:08;;;;;;;10.55;7.50;;;;;;;16.49;86.21;100270.59;1685375;85;21000;-75
2023/09/20 05:01:37;;;;;;;11.97;7.90;;;;;;;16.53;86.79;100273.17;1685449;85;20992;-72
2023/09/20 05:04:06;;;;;;;12.03;7.95;;;;;;;16.54;86.74;100267.94;1685516;85;21448;-74
2023/09/20 05:06:35;;;;;;;12.07;7.45;;;;;;;16.57;87.17;100269.38;1685347;85;21523;-75
2023/09/20 05:09:04;;;;;;;11.10;7.53;;;;;;;16.64;87.19;100274.25;1685410;84;21051;-73
2023/09/20 05:11:33;;;;;;;9.28;7.80;;;;;;;16.66;87.07;100278.50;1685232;85;21523;-74
2023/09/20 05:14:05;;;;;;;12.37;7.87;;;;;;;16.69;87.22;100281.33;1685467;84;21012;-74
2023/09/20 05:16:34;;;;;;;13.45;9.63;;;;;;;16.72;87.48;100274.77;1685452;85;21051;-74
2023/09/20 05:19:03;;;;;;;14.53;9.23;;;;;;;16.76;87.80;100279.28;1685342;85;21516;-73
2023/09/20 05:21:33;;;;;;;12.70;9.38;;;;;;;16.80;87.91;100278.55;1685353;85;20997;-73
2023/09/20 05:24:04;;;;;;;12.18;8.93;;;;;;;16.85;87.92;100272.83;1685303;85;21448;-74
2023/09/20 05:26:33;;;;;;;10.40;8.03;;;;;;;16.88;88.16;100273.19;1685319;84;21144;-74
2023/09/20 05:29:03;;;;;;;11.83;7.95;;;;;;;16.92;88.33;100274.42;1689023;84;21129;-73
2023/09/20 05:31:33;;;;;;;9.93;8.13;;;;;;;16.95;88.36;100272.55;1685305;85;21489;-73
2023/09/20 05:34:02;;;;;;;11.85;7.75;;;;;;;16.99;88.26;100275.13;1685352;85;21063;-73
2023/09/20 05:36:32;;;;;;;10.08;7.60;;;;;;;17.03;88.29;100280.48;1685321;84;21032;-74
2023/09/20 05:39:06;;;;;;;12.58;7.62;;;;;;;17.06;88.22;100272.23;1688898;84;21016;-75
2023/09/20 05:41:33;;;;;;;9.23;7.12;;;;;;;17.10;88.04;100273.43;1685385;85;21060;-75
2023/09/20 05:44:04;;;;;;;10.95;6.53;;;;;;;17.14;87.91;100279.32;1685470;85;21433;-72
2023/09/20 05:46:33;;;;;;;14.68;7.92;;;;;;;17.16;87.30;100283.53;1685342;84;21009;-74
2023/09/20 05:49:02;;;;;;;10.58;7.15;;;;;;;17.20;86.93;100279.73;1685485;84;21068;-73
2023/09/20 05:51:31;;;;;;;8.80;7.25;;;;;;;17.25;86.95;100288.14;1685351;85;21036;-75
2023/09/20 05:53:59;;;;;;;7.80;6.47;;;;;;;17.29;86.41;100285.19;1685376;85;21074;-74
2023/09/20 05:56:27;;;;;;;11.53;7.15;;;;;;;17.33;86.21;100292.77;1685373;85;20965;-76
2023/09/20 05:58:56;;;;;;;11.97;7.92;;;;;;;17.35;86.19;100285.05;1685453;84;21494;-73
2023/09/20 06:01:24;;;;;;;8.68;7.12;;;;;;;17.40;86.15;100293.46;1685407;85;20992;-73
2023/09/20 06:03:56;;;;;;;11.25;7.58;;;;;;;17.47;85.82;100293.87;1685429;85;21008;-73
2023/09/20 06:06:25;;;;;;;10.60;7.28;;;;;;;17.51;85.91;100287.59;1685294;84;21535;-74
2023/09/20 06:08:54;;;;;;;7.20;6.12;;;;;;;17.58;85.72;100298.56;1654571;85;21466;-73
2023/09/20 06:11:22;;;;;;;8.95;6.50;;;;;;;17.62;84.97;100292.28;1654071;86;21067;-74
2023/09/20 06:13:52;;;;;;;11.60;6.17;;;;;;;17.69;84.53;100300.48;1654272;87;21102;-74
2023/09/20 06:16:21;;;;;;;8.70;6.67;;;;;;;17.73;83.87;100298.34;1654109;87;21597;-74
2023/09/20 06:18:51;;;;;;;10.30;6.25;;;;;;;17.76;83.34;100299.78;1654159;87;21481;-73
2023/09/20 06:21:23;;;;;;;7.90;6.20;;;;;;;17.82;83.50;100301.56;1654627;86;21051;-73
2023/09/20 06:23:52;;;;;;;9.10;6.25;;;;;;;17.89;82.79;100309.19;1654061;85;21502;-73
2023/09/20 06:26:21;;;;;;;9.48;6.65;;;;;;;17.94;82.03;100307.05;1654148;86;21719;-73
2023/09/20 06:28:50;;;;;;;9.20;5.65;;;;;;;17.99;81.67;100312.70;1654055;87;21102;-73
2023/09/20 06:31:19;;;;;;;7.33;5.78;;;;;;;18.05;80.76;100316.70;1654198;87;21067;-74
2023/09/20 06:33:48;;;;;;;11.73;6.30;;;;;;;18.09;79.76;100317.05;1657493;85;21150;-72
2023/09/20 06:36:18;;;;;;;7.60;6.00;;;;;;;18.14;79.27;100323.23;1654058;87;21083;-73
2023/09/20 06:38:50;;;;;;;9.70;5.90;;;;;;;18.20;78.96;100320.84;1654241;87;21067;-73
2023/09/20 06:41:20;;;;;;;10.90;6.25;;;;;;;18.26;78.43;100319.33;1654218;85;21063;-72
2023/09/20 06:43:51;;;;;;;7.20;5.90;;;;;;;18.32;77.81;100318.33;1654128;86;21131;-74
2023/09/20 06:46:24;;;;;;;10.25;6.10;;;;;;;18.36;77.09;100320.89;1654118;87;21134;-73
2023/09/20 06:48:51;;;;;;;11.68;5.90;;;;;;;18.41;76.71;100327.08;1654332;87;21054;-74
2023/09/20 06:51:20;;;;;;;10.45;6.15;;;;;;;18.46;76.83;100328.55;1654299;86;21409;-74
2023/09/20 06:53:49;;;;;;;8.28;6.20;;;;;;;18.52;76.32;100330.31;1654263;87;21024;-75
2023/09/20 06:56:17;;;;;;;7.87;5.78;;;;;;;18.57;75.83;100331.79;1654202;87;21059;-73
2023/09/20 06:58:46;;;;;;;8.80;5.85;;;;;;;18.61;75.08;100325.19;1654033;87;21059;-74
2023/09/20 07:01:15;;;;;;;12.73;5.80;;;;;;;18.63;74.50;100316.94;1654241;86;21059;-73
2023/09/20 07:03:45;;;;;;;10.10;6.12;;;;;;;18.67;74.42;100322.27;1654202;87;21490;-72
2023/09/20 07:06:14;;;;;;;9.30;5.83;;;;;;;18.73;74.48;100319.58;1654102;87;21132;-73
2023/09/20 07:08:43;;;;;;;9.35;6.00;;;;;;;18.80;74.22;100322.48;1663415;84;21050;-74
2023/09/20 07:11:13;;;;;;;10.32;5.87;;;;;;;18.88;73.24;100324.02;1666176;86;21078;-75
2023/09/20 07:13:42;;;;;;;8.40;5.75;;;;;;;18.95;73.09;100324.13;1666790;86;21110;-74
2023/09/20 07:16:11;;;;;;;9.38;5.75;;;;;;;19.04;72.49;100323.14;1666593;86;21540;-75
2023/09/20 07:18:44;;;;;;;8.18;5.75;;;;;;;19.11;72.08;100327.97;1666592;85;21557;-73
2023/09/20 07:21:11;;;;;;;7.80;5.37;;;;;;;19.15;72.09;100330.53;1666698;85;21066;-74
2023/09/20 07:23:41;;;;;;;6.65;5.60;;;;;;;19.22;72.06;100335.35;1668080;85;21130;-73
2023/09/20 07:26:09;;;;;;;11.97;6.10;;;;;;;19.31;71.73;100338.53;1666633;85;21048;-74
2023/09/20 07:28:42;;;;;;;9.75;5.92;;;;;;;19.37;71.42;100334.72;1666558;86;21553;-75
2023/09/20 07:31:10;;;;;;;10.72;5.95;;;;;;;19.45;71.22;100338.45;1666410;86;21062;-75
2023/09/20 07:33:40;;;;;;;11.22;6.03;;;;;;;19.52;70.23;100339.16;1666614;86;21054;-73
2023/09/20 07:36:11;;;;;;;11.08;5.85;;;;;;;19.56;69.99;100346.42;1666517;86;21708;-74
2023/09/20 07:38:42;;;;;;;9.18;5.60;;;;;;;19.60;70.13;100343.42;1666521;86;21102;-73
2023/09/20 07:41:18;;;;;;;11.43;5.75;;;;;;;19.64;70.08;100343.20;1666834;86;21122;-75
2023/09/20 07:43:47;;;;;;;10.98;6.35;;;;;;;19.68;69.63;100342.13;1666533;86;21082;-74
2023/09/20 07:46:20;;;;;;;9.25;5.87;;;;;;;19.73;69.57;100342.19;1666660;86;21178;-74
2023/09/20 07:48:51;;;;;;;8.38;5.53;;;;;;;19.81;69.62;100350.07;1666403;86;21082;-74
2023/09/20 07:51:25;;;;;;;9.55;5.72;;;;;;;19.87;69.23;100350.42;1666514;86;21134;-74
2023/09/20 07:53:55;;;;;;;7.05;5.45;;;;;;;19.93;68.63;100349.38;1666477;86;21486;-74
2023/09/20 07:56:26;;;;;;;11.20;6.05;;;;;;;19.99;68.75;100354.45;1664464;85;21061;-76
2023/09/20 07:58:56;;;;;;;8.00;5.53;;;;;;;20.04;68.82;100347.00;1679002;84;21591;-75
2023/09/20 08:01:29;;;;;;;11.73;5.65;;;;;;;20.12;68.67;100350.70;1681499;84;21042;-81
2023/09/20 08:03:58;;;;;;;10.65;5.90;;;;;;;20.25;68.51;100347.53;1664969;86;21090;-78
2023/09/20 08:06:31;;;;;;;7.83;5.08;;;;;;;20.40;68.29;100358.02;1679185;84;21509;-78
2023/09/20 08:09:04;;;;;;;15.30;7.92;;;;;;;20.50;67.43;100353.09;1662499;86;21049;-76
2023/09/20 08:11:35;;;;;;;9.25;6.10;;;;;;;20.57;67.11;100355.94;1663402;85;21132;-74
2023/09/20 08:14:05;;;;;;;10.65;5.53;;;;;;;20.67;67.09;100354.35;1668801;84;21123;-75
2023/09/20 08:16:35;;;;;;;9.48;6.78;;;;;;;20.76;66.82;100352.76;1702336;83;21089;-77
2023/09/20 08:21:43;;;;;;;11.60;6.08;;;;;;;20.93;66.45;100359.05;1702769;84;21041;-75
2023/09/20 09:00:34;;;;;;;7.97;5.65;;;;;;;20.83;65.99;100365.38;1702530;83;21192;-77
2023/09/20 09:03:05;;;;;;;12.00;6.12;;;;;;;20.81;66.14;100367.59;1702468;84;21105;-77
2023/09/20 09:05:34;;;;;;;9.63;5.62;;;;;;;20.81;66.00;100362.02;1702475;84;21723;-77
2023/09/20 09:08:05;;;;;;;8.58;5.45;;;;;;;20.80;66.24;100364.48;1704717;83;21138;-77
2023/09/20 09:10:34;;;;;;;51.88;11.20;;;;;;;20.76;66.01;100359.72;1713992;84;21110;-77
2023/09/20 09:13:04;;;;;;;14.65;6.35;;;;;;;20.71;66.03;100361.91;1714269;83;21082;-77
2023/09/20 09:15:33;;;;;;;10.03;5.80;;;;;;;20.70;66.07;100361.63;1714306;84;21007;-76
2023/09/20 09:18:01;;;;;;;7.42;5.00;;;;;;;20.70;66.15;100360.23;1714288;84;21098;-77
2023/09/20 09:20:30;;;;;;;11.53;5.65;;;;;;;20.72;66.08;100358.57;1713953;83;21078;-75
2023/09/20 09:22:59;;;;;;;7.58;5.28;;;;;;;20.72;66.14;100359.41;1674864;84;21082;-75
2023/09/20 09:25:31;;;;;;;9.93;5.72;;;;;;;20.77;66.30;100358.61;1714269;83;21074;-75
2023/09/20 09:28:01;;;;;;;12.78;5.90;;;;;;;20.76;66.04;100357.77;1714229;83;21102;-75
2023/09/20 09:30:33;;;;;;;8.58;5.85;;;;;;;20.75;65.93;100361.66;1714199;84;21075;-77
2023/09/20 09:33:04;;;;;;;9.78;5.72;;;;;;;20.74;65.96;100353.58;1713972;84;21007;-77
2023/09/20 09:35:35;;;;;;;9.95;5.47;;;;;;;20.74;65.88;100353.58;1714379;84;21066;-76
2023/09/20 09:38:05;;;;;;;7.85;5.60;;;;;;;20.77;65.78;100366.97;1711987;84;21463;-75
2023/09/20 09:40:56;;;;;;;8.63;5.80;;;;;;;20.77;65.82;100360.84;1714133;83;21023;-76
2023/09/20 09:43:29;;;;;;;9.93;6.15;;;;;;;20.80;65.91;100365.04;1714479;83;21106;-74
2023/09/20 09:46:07;;;;;;;13.80;6.00;;;;;;;20.82;65.76;100365.09;1714223;84;21038;-76
2023/09/20 09:48:37;;;;;;;8.43;5.80;;;;;;;20.84;65.89;100370.40;1670605;85;21055;-76
2023/09/20 09:51:06;;;;;;;11.95;5.78;;;;;;;20.85;65.72;100374.86;1714129;84;21031;-75
2023/09/20 09:53:39;;;;;;;9.65;5.62;;;;;;;20.86;65.39;100375.16;1714299;84;21140;-75
2023/09/20 09:56:09;;;;;;;8.05;5.55;;;;;;;20.87;65.36;100372.10;1714076;84;21556;-76
2023/09/20 09:58:37;;;;;;;8.18;5.90;;;;;;;20.88;65.15;100368.77;1714253;83;21046;-75
2023/09/20 10:01:06;;;;;;;10.43;6.17;;;;;;;20.87;65.03;100374.05;1686681;84;21109;-76
2023/09/20 10:03:35;;;;;;;8.73;6.42;;;;;;;20.86;64.86;100369.58;1714249;83;21474;-77
2023/09/20 10:06:18;;;;;;;9.65;5.72;;;;;;;20.87;64.87;100367.08;1708626;84;21048;-76
2023/09/20 10:08:47;;;;;;;9.23;5.70;;;;;;;20.87;64.98;100365.69;1702518;84;21472;-74
2023/09/20 10:11:15;;;;;;;10.08;6.50;;;;;;;20.87;64.81;100364.30;1702612;84;21052;-76
2023/09/20 10:13:46;;;;;;;8.08;5.70;;;;;;;20.87;64.73;100369.87;1702533;84;21095;-76
2023/09/20 10:16:16;;;;;;;9.43;6.33;;;;;;;20.87;64.84;100371.26;1702586;84;21112;-76
2023/09/20 10:18:56;;;;;;;9.63;6.50;;;;;;;20.89;64.91;100371.83;1675582;84;21026;-77
2023/09/20 10:21:30;;;;;;;9.65;6.33;;;;;;;20.89;64.79;100370.44;1702494;84;21099;-76
2023/09/20 10:24:01;;;;;;;8.20;6.10;;;;;;;20.88;64.80;100367.37;1675901;84;21530;-76
2023/09/20 10:26:35;;;;;;;9.80;7.92;;;;;;;20.90;64.96;100362.37;1702489;84;21477;-73
2023/09/20 10:29:25;;;;;;;13.00;7.30;;;;;;;20.93;64.68;100362.39;1676188;84;21034;-77
2023/09/20 10:31:56;;;;;;;10.93;6.70;;;;;;;20.96;64.63;100366.88;1702529;84;21563;-77
2023/09/20 10:34:25;;;;;;;8.68;6.30;;;;;;;20.97;64.62;100360.75;1702319;84;21069;-77
2023/09/20 10:36:54;;;;;;;11.28;5.95;;;;;;;20.97;64.58;100372.73;1702843;84;21053;-76
2023/09/20 10:39:23;;;;;;;10.03;6.17;;;;;;;20.98;64.58;100367.45;1702533;84;21028;-77
2023/09/20 10:41:52;;;;;;;11.18;6.10;;;;;;;21.01;64.64;100366.91;1702414;84;21566;-77
2023/09/20 10:44:30;;;;;;;10.88;6.35;;;;;;;21.06;64.59;100357.75;1702506;84;21089;-76
2023/09/20 10:47:01;;;;;;;11.78;6.50;;;;;;;21.07;64.26;100358.03;1702697;84;21032;-78
2023/09/20 10:49:50;;;;;;;9.38;6.20;;;;;;;21.06;63.83;100354.96;1702618;84;21062;-77
2023/09/20 10:52:39;;;;;;;14.75;6.80;;;;;;;21.05;63.80;100356.07;1702310;84;21072;-76
2023/09/20 10:55:28;;;;;;;9.75;6.20;;;;;;;21.04;63.74;100352.44;1702551;84;21045;-78
2023/09/20 10:57:59;;;;;;;14.75;7.28;;;;;;;21.02;63.75;100353.27;1702446;84;21469;-76
2023/09/20 11:00:30;;;;;;;12.28;6.70;;;;;;;21.02;63.76;100345.46;1652728;84;21033;-78
2023/09/20 11:03:06;;;;;;;9.48;5.50;;;;;;;21.02;63.90;100355.21;1702432;83;21288;-78
2023/09/20 11:05:35;;;;;;;9.88;5.85;;;;;;;21.04;64.06;100346.88;1678329;84;21482;-78
2023/09/20 11:08:11;;;;;;;17.15;6.45;;;;;;;21.04;64.32;100349.66;1675462;86;21049;-77
2023/09/20 11:10:40;;;;;;;9.78;6.60;;;;;;;21.06;64.50;100353.56;1626612;88;21132;-78
2023/09/20 11:13:11;;;;;;;9.78;6.58;;;;;;;21.08;64.44;100352.19;1645228;87;21151;-76
2023/09/20 11:15:47;;;;;;;8.63;6.15;;;;;;;21.12;64.37;100352.50;1645158;87;21091;-76
2023/09/20 11:18:19;;;;;;;18.05;7.40;;;;;;;21.18;64.36;100351.42;1640735;87;21567;-80
2023/09/20 11:20:49;;;;;;;10.10;6.17;;;;;;;21.25;64.16;100352.61;1640025;87;21036;-80
2023/09/20 11:23:18;;;;;;;9.98;6.12;;;;;;;21.29;63.93;100350.41;1613936;89;21065;-77
2023/09/20 11:25:50;;;;;;;12.55;6.75;;;;;;;21.36;63.70;100346.83;1630532;88;21080;-76
2023/09/20 11:28:19;;;;;;;11.93;6.80;;;;;;;21.43;63.53;100346.58;1613907;89;21057;-75
2023/09/20 11:30:51;;;;;;;11.57;6.95;;;;;;;21.49;63.56;100338.56;1630679;88;21102;-76
2023/09/20 11:33:27;;;;;;;8.48;6.28;;;;;;;21.57;63.40;100346.41;1614158;89;21069;-76
2023/09/20 11:35:56;;;;;;;12.30;6.80;;;;;;;21.63;63.26;100339.73;1630683;88;21053;-76
2023/09/20 11:38:26;;;;;;;11.97;6.67;;;;;;;21.69;62.93;100337.81;1613840;89;21497;-76
2023/09/20 11:40:55;;;;;;;11.85;6.55;;;;;;;21.73;62.73;100334.20;1630501;88;21132;-75
2023/09/20 11:43:23;;;;;;;12.25;7.08;;;;;;;21.78;62.61;100337.01;1607890;89;21094;-77
2023/09/20 11:45:53;;;;;;;9.95;6.58;;;;;;;21.85;62.70;100335.36;1586010;89;21829;-76
2023/09/20 11:48:24;;;;;;;15.70;7.47;;;;;;;21.91;62.72;100339.00;1629501;88;21212;-78
2023/09/20 11:50:54;;;;;;;11.50;6.53;;;;;;;21.96;62.57;100330.09;1614000;89;21137;-76
2023/09/20 11:53:22;;;;;;;12.53;6.92;;;;;;;22.02;62.51;100331.78;1630731;88;21620;-77
2023/09/20 11:55:54;;;;;;;10.45;6.50;;;;;;;22.09;62.27;100328.76;1613978;89;21081;-75
2023/09/20 11:58:23;;;;;;;9.65;6.30;;;;;;;22.15;62.07;100326.29;1630332;88;21251;-77
2023/09/20 12:00:51;;;;;;;12.23;6.50;;;;;;;22.22;61.76;100327.42;1613941;89;21461;-75
2023/09/20 12:03:20;;;;;;;12.00;7.40;;;;;;;22.26;61.36;100327.98;1605167;88;21084;-74
2023/09/20 12:05:48;;;;;;;9.35;7.30;;;;;;;22.31;61.37;100327.16;1601490;89;21067;-73
2023/09/20 12:08:18;;;;;;;12.98;8.08;;;;;;;22.35;61.36;100329.67;1632881;87;21035;-74
2023/09/20 12:10:47;;;;;;;11.88;6.45;;;;;;;22.39;61.34;100328.00;1630949;87;21543;-72
2023/09/20 12:13:15;;;;;;;10.65;6.35;;;;;;;22.41;61.08;100325.21;1623057;88;21135;-74
2023/09/20 12:15:47;;;;;;;8.90;6.70;;;;;;;22.41;60.47;100326.61;1640072;87;21338;-73